Time;durP1;ratioP1;P1;durP2;ratioP2;P2;SDS_P1;SDS_P2;PMS_P1;PMS_P2;Temp;Humidity;BMP_temperature;BMP_pressure;BME280_temperature;BME280_humidity;BME280_pressure;Samples;Min_cycle;Max_cycle;Signal;HPM_P1;HPM_P2
2024/01/16 00:01:59;;;;;;;14.40;2.40;;;1.40;99.90;;;;;;5057184;28;20096;-80
2024/01/16 00:04:26;;;;;;;10.82;1.98;;;1.40;99.90;;;;;;5061875;28;20171;-80
2024/01/16 00:06:52;;;;;;;9.13;1.90;;;1.30;99.90;;;;;;5057844;28;20016;-79
2024/01/16 00:09:18;;;;;;;9.10;1.67;;;1.30;99.90;;;;;;5054639;28;20035;-79
2024/01/16 00:11:44;;;;;;;8.48;1.50;;;1.30;99.90;;;;;;5061145;28;20029;-79
2024/01/16 00:14:10;;;;;;;8.88;1.90;;;1.30;99.90;;;;;;5062305;28;20433;-79
2024/01/16 00:16:43;;;;;;;12.48;1.90;;;1.30;99.90;;;;;;5054249;28;20489;-79
2024/01/16 00:19:12;;;;;;;5.68;1.38;;;1.30;99.90;;;;;;5056073;28;20479;-79
2024/01/16 00:21:39;;;;;;;7.80;1.65;;;1.20;99.90;;;;;;5062290;28;20042;-79
2024/01/16 00:24:05;;;;;;;10.02;1.40;;;1.20;99.90;;;;;;5054942;28;20559;-79
2024/01/16 00:26:30;;;;;;;14.73;2.10;;;1.20;99.90;;;;;;5062172;28;20021;-79
2024/01/16 00:28:56;;;;;;;10.65;1.58;;;1.20;99.90;;;;;;5057413;28;20025;-79
2024/01/16 00:31:22;;;;;;;12.90;1.52;;;1.10;99.90;;;;;;5064042;28;20123;-79
2024/01/16 00:33:47;;;;;;;15.75;1.83;;;1.10;99.90;;;;;;5054090;28;20501;-79
2024/01/16 00:36:13;;;;;;;7.22;1.85;;;1.10;99.90;;;;;;5059081;28;20037;-78
2024/01/16 00:38:39;;;;;;;8.80;1.52;;;1.10;99.90;;;;;;5062089;28;20480;-79
2024/01/16 00:41:04;;;;;;;9.90;1.75;;;1.10;99.90;;;;;;5054983;28;20016;-79
2024/01/16 00:43:30;;;;;;;13.70;2.53;;;1.10;99.90;;;;;;5054776;28;20031;-79
2024/01/16 00:45:56;;;;;;;9.32;2.00;;;1.10;99.90;;;;;;5061904;28;20028;-79
2024/01/16 00:48:21;;;;;;;9.00;2.08;;;1.10;99.90;;;;;;5058832;28;20063;-79
2024/01/16 00:50:49;;;;;;;11.35;2.15;;;1.10;99.90;;;;;;5053695;28;20107;-79
2024/01/16 00:53:16;;;;;;;13.90;1.90;;;1.10;99.90;;;;;;5056959;28;20029;-78
2024/01/16 00:55:42;;;;;;;9.68;1.52;;;1.10;99.90;;;;;;5060770;28;20070;-79
2024/01/16 00:58:07;;;;;;;10.82;2.20;;;1.10;99.90;;;;;;5054792;28;20024;-79
2024/01/16 01:00:34;;;;;;;6.63;1.63;;;1.10;99.90;;;;;;5054639;28;20025;-79
2024/01/16 01:03:00;;;;;;;10.07;1.95;;;1.00;99.90;;;;;;5061645;28;20009;-79
2024/01/16 01:05:28;;;;;;;10.20;1.88;;;1.00;99.90;;;;;;5057966;28;20024;-79
2024/01/16 01:07:58;;;;;;;13.38;2.40;;;1.00;99.90;;;;;;5053304;28;20147;-79
2024/01/16 01:10:24;;;;;;;12.15;2.08;;;1.00;99.90;;;;;;5056170;28;20088;-79
2024/01/16 01:12:52;;;;;;;9.32;2.47;;;1.00;99.90;;;;;;5061203;28;20048;-79
2024/01/16 01:15:18;;;;;;;7.75;1.95;;;1.00;99.90;;;;;;5056548;28;20013;-78
2024/01/16 01:17:43;;;;;;;11.90;1.73;;;1.00;99.90;;;;;;5053086;28;20566;-79
2024/01/16 01:20:12;;;;;;;8.98;1.60;;;1.10;99.90;;;;;;5060531;28;20025;-79
2024/01/16 01:22:38;;;;;;;11.80;1.98;;;1.10;99.90;;;;;;5060057;28;20044;-79
2024/01/16 01:25:04;;;;;;;7.75;1.90;;;1.10;99.90;;;;;;5060921;28;20021;-78
2024/01/16 01:27:29;;;;;;;9.30;2.00;;;1.10;99.90;;;;;;5058388;28;20147;-79
2024/01/16 01:29:55;;;;;;;11.45;2.00;;;1.10;99.90;;;;;;5051677;28;20523;-79
2024/01/16 01:32:21;;;;;;;9.80;2.10;;;1.10;99.90;;;;;;5052983;28;20025;-79
2024/01/16 01:34:47;;;;;;;14.55;3.28;;;1.10;99.90;;;;;;5056130;28;20479;-79
2024/01/16 01:37:14;;;;;;;13.48;2.65;;;1.10;99.90;;;;;;5059742;28;20036;-79
2024/01/16 01:39:40;;;;;;;14.40;3.38;;;1.10;99.90;;;;;;5056854;28;20017;-79
2024/01/16 01:42:05;;;;;;;8.80;2.30;;;1.10;99.90;;;;;;5051887;28;20028;-79
2024/01/16 01:44:31;;;;;;;8.48;2.92;;;1.10;99.90;;;;;;5058286;28;20107;-79
2024/01/16 01:46:57;;;;;;;8.35;2.88;;;1.20;99.90;;;;;;5059907;28;20078;-79
2024/01/16 01:49:24;;;;;;;12.60;2.83;;;1.10;99.90;;;;;;5052941;28;20032;-79
2024/01/16 01:51:50;;;;;;;13.02;2.97;;;1.10;99.90;;;;;;5053525;28;20490;-79
2024/01/16 01:54:17;;;;;;;9.48;2.65;;;1.10;99.90;;;;;;5061005;28;20067;-79
2024/01/16 01:56:46;;;;;;;7.30;2.25;;;1.10;99.90;;;;;;5056469;28;20029;-79
2024/01/16 01:59:14;;;;;;;13.10;2.83;;;1.10;99.90;;;;;;5052943;28;20128;-79
2024/01/16 02:01:41;;;;;;;8.52;2.95;;;1.10;99.90;;;;;;5056634;28;20025;-79
2024/01/16 02:04:06;;;;;;;12.88;3.17;;;1.00;99.90;;;;;;5060862;28;20088;-79
2024/01/16 02:06:32;;;;;;;10.82;3.30;;;1.00;99.90;;;;;;5053347;28;20164;-79
2024/01/16 02:08:59;;;;;;;13.88;3.33;;;1.10;99.90;;;;;;5052718;28;20027;-80
2024/01/16 02:11:25;;;;;;;11.07;3.50;;;1.10;99.90;;;;;;5060780;28;20036;-79
2024/01/16 02:13:50;;;;;;;10.98;3.85;;;1.10;99.90;;;;;;5057170;28;20024;-79
2024/01/16 02:16:23;;;;;;;10.52;4.15;;;1.00;99.90;;;;;;5052755;28;20106;-79
2024/01/16 02:18:50;;;;;;;10.85;4.30;;;1.00;99.90;;;;;;5056509;28;20028;-80
2024/01/16 02:21:20;;;;;;;11.23;5.00;;;1.00;99.90;;;;;;5060785;28;20478;-80
2024/01/16 02:23:46;;;;;;;13.97;4.70;;;1.00;99.90;;;;;;5060787;28;20071;-80
2024/01/16 02:26:17;;;;;;;22.98;6.15;;;1.00;99.90;;;;;;5052756;28;20053;-79
2024/01/16 02:28:43;;;;;;;14.32;5.90;;;1.00;99.90;;;;;;5057996;28;20032;-80
2024/01/16 02:31:08;;;;;;;14.90;7.22;;;1.00;99.90;;;;;;5049448;28;20036;-79
2024/01/16 02:33:34;;;;;;;18.67;6.97;;;1.00;99.90;;;;;;5059232;28;20032;-79
2024/01/16 02:36:00;;;;;;;17.58;6.60;;;1.00;99.90;;;;;;5053394;28;20390;-79
2024/01/16 02:38:25;;;;;;;14.73;6.93;;;1.10;99.90;;;;;;5052951;28;20032;-79
2024/01/16 02:40:51;;;;;;;15.93;7.68;;;1.10;99.90;;;;;;5060670;28;20032;-79
2024/01/16 02:43:17;;;;;;;17.05;8.10;;;1.10;99.90;;;;;;5057367;28;20013;-79
2024/01/16 02:45:43;;;;;;;24.13;8.40;;;1.10;99.90;;;;;;5052361;28;20036;-79
2024/01/16 02:48:09;;;;;;;17.20;8.18;;;1.20;99.90;;;;;;5057123;28;20025;-78
2024/01/16 02:50:35;;;;;;;18.75;9.20;;;1.20;99.90;;;;;;5060513;28;20389;-79
2024/01/16 02:53:00;;;;;;;13.55;7.63;;;1.20;99.90;;;;;;5053475;28;20019;-78
2024/01/16 02:55:26;;;;;;;15.18;7.50;;;1.30;99.90;;;;;;5055606;28;20035;-78
2024/01/16 02:57:51;;;;;;;18.73;7.40;;;1.30;99.90;;;;;;5064259;28;20013;-80
2024/01/16 03:00:17;;;;;;;19.98;7.90;;;1.30;99.90;;;;;;5061474;28;20020;-79
2024/01/16 03:02:43;;;;;;;18.63;7.18;;;1.40;99.90;;;;;;5055691;28;20110;-79
2024/01/16 03:05:10;;;;;;;17.63;6.85;;;1.40;99.90;;;;;;5060913;28;20021;-79
2024/01/16 03:07:36;;;;;;;18.38;7.10;;;1.40;99.90;;;;;;5063824;28;20028;-79
2024/01/16 03:10:03;;;;;;;16.25;5.22;;;1.40;99.90;;;;;;5057288;28;20103;-79
2024/01/16 03:12:28;;;;;;;14.73;5.53;;;1.40;99.90;;;;;;5056237;28;20028;-80
2024/01/16 03:14:54;;;;;;;18.75;6.35;;;1.40;99.90;;;;;;5062323;28;20025;-79
2024/01/16 03:17:20;;;;;;;17.05;6.40;;;1.50;99.90;;;;;;5060806;28;20075;-79
2024/01/16 03:19:46;;;;;;;16.83;6.55;;;1.50;99.90;;;;;;5055510;28;20020;-80
2024/01/16 03:22:12;;;;;;;18.13;6.32;;;1.50;99.90;;;;;;5060198;28;20223;-79
2024/01/16 03:24:38;;;;;;;15.95;6.50;;;1.50;99.90;;;;;;5067964;28;20504;-79
2024/01/16 03:27:04;;;;;;;15.80;6.32;;;1.50;99.90;;;;;;5056725;28;20028;-79
2024/01/16 03:29:30;;;;;;;15.82;5.90;;;1.50;99.90;;;;;;5056076;28;20103;-79
2024/01/16 03:31:55;;;;;;;17.80;6.50;;;1.50;99.90;;;;;;5054713;28;20021;-79
2024/01/16 03:34:23;;;;;;;16.15;5.90;;;1.50;99.90;;;;;;5061855;28;20116;-79
2024/01/16 03:36:48;;;;;;;12.90;5.72;;;1.50;99.90;;;;;;5061780;28;20028;-79
2024/01/16 03:39:14;;;;;;;15.75;6.18;;;1.50;99.90;;;;;;5069376;28;20371;-79
2024/01/16 03:41:40;;;;;;;13.75;5.78;;;1.50;99.90;;;;;;5060934;28;20039;-79
2024/01/16 03:44:05;;;;;;;16.15;5.03;;;1.50;99.90;;;;;;5053350;28;20052;-79
2024/01/16 03:46:31;;;;;;;11.07;4.15;;;1.50;99.90;;;;;;5059647;28;20017;-80
2024/01/16 03:48:57;;;;;;;8.95;3.85;;;1.50;99.90;;;;;;5061486;28;20054;-79
2024/01/16 03:51:25;;;;;;;9.32;4.25;;;1.50;99.90;;;;;;5057197;28;20037;-79
2024/01/16 03:53:51;;;;;;;8.75;3.80;;;1.50;99.90;;;;;;5054557;28;20044;-79
2024/01/16 03:56:17;;;;;;;14.27;4.40;;;1.50;99.90;;;;;;5062985;28;20025;-79
2024/01/16 03:58:42;;;;;;;13.85;3.85;;;1.50;99.90;;;;;;5060868;28;20055;-79
2024/01/16 04:01:09;;;;;;;8.82;3.65;;;1.50;99.90;;;;;;5054987;28;20020;-79
2024/01/16 04:03:35;;;;;;;11.85;3.42;;;1.50;99.90;;;;;;5058360;28;20459;-79
2024/01/16 04:06:01;;;;;;;10.38;3.38;;;1.50;99.90;;;;;;5062005;28;20025;-79
2024/01/16 04:08:26;;;;;;;9.85;3.33;;;1.50;99.90;;;;;;5056759;28;20073;-79
2024/01/16 04:10:52;;;;;;;12.88;2.97;;;1.50;99.90;;;;;;5054571;28;20021;-81
2024/01/16 04:13:18;;;;;;;12.43;3.28;;;1.50;99.90;;;;;;5062238;28;20043;-81
2024/01/16 04:15:43;;;;;;;11.57;2.80;;;1.60;99.90;;;;;;5060692;28;20375;-81
2024/01/16 04:18:09;;;;;;;11.05;2.78;;;1.60;99.90;;;;;;5054356;28;20593;-81
2024/01/16 04:20:35;;;;;;;9.98;3.00;;;1.60;99.90;;;;;;5058569;28;20028;-81
2024/01/16 04:23:01;;;;;;;5.82;2.75;;;1.60;99.90;;;;;;5064246;28;20368;-79
2024/01/16 04:25:27;;;;;;;8.15;2.33;;;1.60;99.90;;;;;;5059094;28;20064;-79
2024/01/16 04:27:53;;;;;;;6.10;2.13;;;1.60;99.90;;;;;;5061965;28;20063;-78
2024/01/16 04:30:20;;;;;;;7.07;2.38;;;1.60;99.90;;;;;;5051196;28;20443;-79
2024/01/16 04:32:45;;;;;;;6.93;2.35;;;1.60;99.90;;;;;;5055734;28;20039;-79
2024/01/16 04:35:11;;;;;;;8.98;3.05;;;1.60;99.90;;;;;;5054603;28;20032;-78
2024/01/16 04:37:37;;;;;;;14.77;3.78;;;1.70;99.90;;;;;;5061700;28;20088;-78
2024/01/16 04:40:05;;;;;;;12.05;3.72;;;1.60;99.90;;;;;;5060736;28;20075;-79
2024/01/16 04:42:31;;;;;;;12.25;4.60;;;1.60;99.90;;;;;;5053855;28;20055;-78
2024/01/16 04:44:57;;;;;;;11.57;4.35;;;1.60;99.90;;;;;;5057602;28;20021;-80
2024/01/16 04:47:22;;;;;;;13.68;4.65;;;1.70;99.90;;;;;;5061812;28;20040;-80
2024/01/16 04:49:48;;;;;;;9.00;4.45;;;1.70;99.90;;;;;;5055544;28;20042;-78
2024/01/16 04:52:14;;;;;;;12.10;4.43;;;1.60;99.90;;;;;;5053594;28;20025;-78
2024/01/16 04:54:39;;;;;;;12.75;5.05;;;1.60;99.90;;;;;;5061420;28;20470;-78
2024/01/16 04:57:05;;;;;;;10.07;4.25;;;1.70;99.90;;;;;;5060936;28;20658;-78
2024/01/16 04:59:31;;;;;;;10.02;4.78;;;1.60;99.90;;;;;;5054027;28;20405;-78
2024/01/16 05:01:56;;;;;;;15.40;5.22;;;1.60;99.90;;;;;;5057177;28;20029;-78
2024/01/16 05:04:22;;;;;;;10.35;3.78;;;1.60;99.90;;;;;;5061950;28;21385;-78
2024/01/16 05:06:51;;;;;;;12.82;4.10;;;1.60;99.90;;;;;;5056756;28;20482;-78
2024/01/16 05:09:19;;;;;;;12.00;4.55;;;1.60;99.90;;;;;;5052369;28;20025;-82
2024/01/16 05:11:45;;;;;;;11.45;4.07;;;1.60;99.90;;;;;;5060677;28;20024;-78
2024/01/16 05:14:10;;;;;;;12.40;4.28;;;1.60;99.90;;;;;;5061090;28;20792;-78
2024/01/16 05:16:36;;;;;;;11.02;4.20;;;1.60;99.90;;;;;;5053740;28;20436;-78
2024/01/16 05:19:02;;;;;;;8.20;3.70;;;1.60;99.90;;;;;;5054435;28;20406;-78
2024/01/16 05:21:28;;;;;;;7.43;3.38;;;1.50;99.90;;;;;;5061511;28;20032;-78
2024/01/16 05:23:54;;;;;;;8.40;3.30;;;1.50;99.90;;;;;;5062984;28;20045;-78
2024/01/16 05:26:19;;;;;;;8.65;3.78;;;1.50;99.90;;;;;;5053432;28;20446;-78
2024/01/16 05:28:45;;;;;;;8.23;2.80;;;1.50;99.90;;;;;;5059790;28;20029;-78
2024/01/16 05:31:11;;;;;;;6.72;2.40;;;1.50;99.90;;;;;;5061028;28;20035;-78
2024/01/16 05:33:36;;;;;;;11.18;2.67;;;1.50;99.90;;;;;;5064584;28;20024;-78
2024/01/16 05:36:02;;;;;;;11.98;2.17;;;1.50;99.90;;;;;;5047801;28;20033;-78
2024/01/16 05:38:28;;;;;;;12.18;2.17;;;1.50;99.90;;;;;;5047547;28;20142;-78
2024/01/16 05:40:53;;;;;;;7.93;2.30;;;1.50;99.90;;;;;;5061692;28;20017;-78
2024/01/16 05:43:19;;;;;;;6.50;1.77;;;1.50;99.90;;;;;;5058663;28;20032;-78
2024/01/16 05:45:45;;;;;;;7.30;1.73;;;1.40;99.90;;;;;;5052051;28;20024;-78
2024/01/16 05:48:13;;;;;;;10.75;1.83;;;1.50;99.90;;;;;;5056353;28;20031;-78
2024/01/16 05:50:38;;;;;;;7.70;1.77;;;1.50;99.90;;;;;;5061427;28;20402;-78
2024/01/16 05:53:04;;;;;;;6.78;2.25;;;1.50;99.90;;;;;;5054735;28;20013;-79
2024/01/16 05:55:32;;;;;;;7.53;1.95;;;1.50;99.90;;;;;;5053911;28;20029;-79
2024/01/16 05:57:59;;;;;;;7.22;1.92;;;1.50;99.90;;;;;;5065708;28;20005;-79
2024/01/16 06:00:25;;;;;;;7.75;2.05;;;1.50;99.90;;;;;;5054948;28;20083;-79
2024/01/16 06:02:50;;;;;;;12.57;2.42;;;1.50;99.90;;;;;;5061016;28;20017;-79
2024/01/16 06:05:16;;;;;;;5.28;1.60;;;1.50;99.90;;;;;;5057453;28;20017;-79
2024/01/16 06:07:42;;;;;;;12.00;2.58;;;1.50;99.90;;;;;;5053181;28;20513;-78
2024/01/16 06:10:08;;;;;;;8.30;2.30;;;1.50;99.90;;;;;;5059085;28;20432;-79
2024/01/16 06:12:34;;;;;;;11.13;2.25;;;1.50;99.90;;;;;;5060746;28;20032;-79
2024/01/16 06:15:00;;;;;;;6.85;2.33;;;1.50;99.90;;;;;;5052072;28;20024;-79
2024/01/16 06:17:25;;;;;;;10.27;2.95;;;1.50;99.90;;;;;;5054673;28;20173;-78
2024/01/16 06:19:51;;;;;;;9.77;3.00;;;1.40;99.90;;;;;;5060640;28;20033;-79
2024/01/16 06:22:17;;;;;;;12.63;3.10;;;1.50;99.90;;;;;;5049565;28;20095;-80
2024/01/16 06:24:42;;;;;;;12.55;3.45;;;1.40;99.90;;;;;;5064470;28;20142;-79
2024/01/16 06:27:08;;;;;;;13.63;3.85;;;1.50;99.90;;;;;;5054887;28;20055;-79
2024/01/16 06:29:34;;;;;;;15.88;3.35;;;1.50;99.90;;;;;;5055477;28;20051;-79
2024/01/16 06:32:00;;;;;;;10.98;3.10;;;1.40;99.90;;;;;;5056562;28;20028;-79
2024/01/16 06:34:27;;;;;;;14.00;4.20;;;1.50;99.90;;;;;;5060956;28;20021;-79
2024/01/16 06:36:52;;;;;;;12.65;2.97;;;1.50;99.90;;;;;;5063262;28;20028;-80
2024/01/16 06:39:18;;;;;;;7.38;2.97;;;1.50;99.90;;;;;;5056709;28;20028;-79
2024/01/16 06:41:44;;;;;;;15.40;3.40;;;1.50;99.90;;;;;;5058308;28;20063;-80
2024/01/16 06:44:09;;;;;;;10.20;2.92;;;1.50;99.90;;;;;;5062910;28;20070;-79
2024/01/16 06:46:35;;;;;;;11.88;3.80;;;1.50;99.90;;;;;;5063142;28;20017;-80
2024/01/16 06:49:02;;;;;;;10.15;2.95;;;1.50;99.90;;;;;;5055876;28;20509;-79
2024/01/16 06:51:27;;;;;;;8.50;2.90;;;1.50;99.90;;;;;;5060653;28;20094;-79
2024/01/16 06:53:53;;;;;;;8.82;2.80;;;1.60;99.90;;;;;;5063538;28;20025;-79
2024/01/16 06:56:19;;;;;;;10.50;2.88;;;1.50;99.90;;;;;;5050198;28;20021;-79
2024/01/16 06:58:45;;;;;;;10.13;2.80;;;1.50;99.90;;;;;;5062600;28;20043;-79
2024/01/16 07:01:10;;;;;;;7.13;3.38;;;1.50;99.90;;;;;;5055817;28;20027;-79
2024/01/16 07:03:37;;;;;;;13.57;3.50;;;1.60;99.90;;;;;;5059469;28;20043;-80
2024/01/16 07:06:03;;;;;;;11.68;2.78;;;1.60;99.90;;;;;;5050515;28;20086;-79
2024/01/16 07:08:29;;;;;;;12.50;3.15;;;1.60;99.90;;;;;;5050648;28;20029;-79
2024/01/16 07:10:54;;;;;;;7.65;2.75;;;1.60;99.90;;;;;;5050618;28;20163;-80
2024/01/16 07:13:20;;;;;;;10.18;3.25;;;1.60;99.90;;;;;;5055155;28;21098;-79
2024/01/16 07:15:46;;;;;;;8.00;2.97;;;1.60;99.90;;;;;;5066512;28;20029;-80
2024/01/16 07:18:12;;;;;;;9.93;3.40;;;1.60;99.90;;;;;;5063219;28;20033;-80
2024/01/16 07:20:37;;;;;;;13.15;3.65;;;1.60;99.90;;;;;;5068219;28;20029;-79
2024/01/16 07:23:04;;;;;;;13.85;3.90;;;1.60;99.90;;;;;;5063314;28;20059;-79
2024/01/16 07:25:29;;;;;;;10.10;3.72;;;1.60;99.90;;;;;;5063212;28;20062;-80
2024/01/16 07:27:55;;;;;;;17.25;5.10;;;1.60;99.90;;;;;;5051762;28;20495;-80
2024/01/16 07:30:21;;;;;;;11.27;4.35;;;1.70;99.90;;;;;;5068976;28;20029;-79
2024/01/16 07:32:47;;;;;;;13.23;5.38;;;1.60;99.90;;;;;;5060604;28;20056;-79
2024/01/16 07:35:13;;;;;;;18.98;5.65;;;1.60;99.90;;;;;;5063824;28;20036;-79
2024/01/16 07:37:39;;;;;;;13.40;5.97;;;1.60;99.90;;;;;;5061419;28;20155;-79
2024/01/16 07:40:09;;;;;;;16.08;6.70;;;1.60;99.90;;;;;;5060651;28;20456;-80
2024/01/16 07:42:35;;;;;;;16.02;6.88;;;1.60;99.90;;;;;;5064072;28;20527;-79
2024/01/16 07:45:04;;;;;;;18.60;7.78;;;1.60;99.90;;;;;;5055765;28;20505;-80
2024/01/16 07:47:31;;;;;;;19.73;7.72;;;1.60;99.90;;;;;;5065594;28;20560;-79
2024/01/16 07:49:57;;;;;;;16.88;7.20;;;1.60;99.90;;;;;;5057531;28;20486;-80
2024/01/16 07:52:23;;;;;;;20.10;8.48;;;1.60;99.90;;;;;;5055077;28;20033;-80
2024/01/16 07:54:49;;;;;;;17.42;8.07;;;1.60;99.90;;;;;;5060639;28;20025;-78
2024/01/16 07:57:14;;;;;;;15.02;7.32;;;1.50;99.90;;;;;;5063151;28;20027;-78
2024/01/16 07:59:43;;;;;;;17.90;7.43;;;1.50;99.90;;;;;;5054646;28;20035;-78
2024/01/16 08:02:09;;;;;;;17.98;8.10;;;1.50;99.90;;;;;;5050098;28;20024;-79
2024/01/16 08:04:35;;;;;;;16.98;7.85;;;1.50;99.90;;;;;;5052306;28;20040;-79
2024/01/16 08:07:01;;;;;;;18.45;8.48;;;1.60;99.90;;;;;;5067833;28;20052;-79
2024/01/16 08:09:27;;;;;;;16.40;7.70;;;1.50;99.90;;;;;;5064595;28;20029;-80
2024/01/16 08:11:53;;;;;;;16.83;8.25;;;1.50;99.90;;;;;;5068496;28;20039;-79
2024/01/16 08:14:19;;;;;;;22.73;8.32;;;1.50;99.90;;;;;;5066245;28;20035;-80
2024/01/16 08:16:45;;;;;;;18.73;8.75;;;1.40;99.90;;;;;;5065959;28;20356;-80
2024/01/16 08:19:11;;;;;;;17.13;7.40;;;1.40;99.90;;;;;;5064171;28;20067;-76
2024/01/16 08:21:36;;;;;;;21.92;7.65;;;1.40;99.90;;;;;;5054583;28;20110;-79
2024/01/16 08:24:02;;;;;;;16.25;7.53;;;1.40;99.90;;;;;;5064775;28;20048;-80
2024/01/16 08:26:28;;;;;;;16.10;7.05;;;1.40;99.90;;;;;;5061699;28;20008;-79
2024/01/16 08:28:54;;;;;;;15.80;6.85;;;1.40;99.90;;;;;;5053032;28;20037;-79
2024/01/16 08:31:20;;;;;;;18.02;6.93;;;1.40;99.90;;;;;;5052526;28;20041;-79
2024/01/16 08:33:47;;;;;;;18.42;8.25;;;1.40;99.90;;;;;;5062122;28;20020;-79
2024/01/16 08:36:13;;;;;;;15.85;6.50;;;1.30;99.90;;;;;;5057635;28;20028;-79
2024/01/16 08:38:39;;;;;;;12.98;5.85;;;1.30;99.90;;;;;;5066946;28;20077;-79
2024/01/16 08:41:06;;;;;;;12.73;5.70;;;1.30;99.90;;;;;;5055115;28;20108;-79
2024/01/16 08:43:33;;;;;;;17.30;6.55;;;1.30;99.90;;;;;;5058663;28;20024;-79
2024/01/16 08:45:59;;;;;;;18.63;6.60;;;1.30;99.90;;;;;;5067374;28;20027;-79
2024/01/16 08:48:25;;;;;;;13.63;5.60;;;1.30;99.90;;;;;;5059582;28;20025;-79
2024/01/16 08:50:51;;;;;;;14.68;5.70;;;1.30;99.90;;;;;;5056870;28;20372;-79
2024/01/16 08:53:17;;;;;;;17.95;5.88;;;1.30;99.90;;;;;;5061714;28;20016;-79
2024/01/16 08:55:43;;;;;;;14.75;5.35;;;1.30;99.90;;;;;;5067599;28;20089;-79
2024/01/16 08:58:08;;;;;;;9.35;5.32;;;1.30;99.90;;;;;;5065692;28;20032;-79
2024/01/16 09:00:34;;;;;;;11.07;5.00;;;1.30;99.90;;;;;;5065168;28;20029;-80
2024/01/16 09:03:00;;;;;;;13.90;5.53;;;1.30;99.90;;;;;;5046769;28;20379;-79
2024/01/16 09:05:26;;;;;;;14.07;5.35;;;1.30;99.90;;;;;;5059723;28;20348;-79
2024/01/16 09:07:54;;;;;;;15.30;5.40;;;1.30;99.90;;;;;;5049913;28;20024;-79
2024/01/16 09:10:20;;;;;;;11.38;5.82;;;1.30;99.90;;;;;;5055922;28;20146;-79
2024/01/16 09:12:45;;;;;;;16.85;5.63;;;1.30;99.90;;;;;;5053193;28;20123;-79
2024/01/16 09:15:11;;;;;;;11.38;4.18;;;1.30;99.90;;;;;;5059495;28;20207;-79
2024/01/16 09:17:37;;;;;;;14.43;4.13;;;1.30;99.90;;;;;;5061303;28;20117;-79
2024/01/16 09:20:03;;;;;;;12.82;4.68;;;1.30;99.90;;;;;;5052937;28;20035;-79
2024/01/16 09:22:28;;;;;;;10.77;5.32;;;1.30;99.90;;;;;;5059805;28;20039;-79
2024/01/16 09:24:54;;;;;;;12.52;4.40;;;1.30;99.90;;;;;;5061756;28;20024;-79
2024/01/16 09:27:19;;;;;;;14.18;5.05;;;1.30;99.90;;;;;;5057264;28;20371;-79
2024/01/16 09:29:45;;;;;;;14.65;4.45;;;1.30;99.90;;;;;;5051469;28;20074;-79
2024/01/16 09:32:11;;;;;;;10.75;4.18;;;1.40;99.90;;;;;;5053348;28;20025;-77
2024/01/16 09:34:37;;;;;;;12.45;3.90;;;1.40;99.90;;;;;;5057367;28;20032;-79
2024/01/16 09:37:03;;;;;;;8.38;3.50;;;1.40;99.90;;;;;;5051761;28;20027;-78
2024/01/16 09:39:34;;;;;;;14.35;4.13;;;1.40;99.90;;;;;;5054846;28;20162;-79
2024/01/16 09:42:03;;;;;;;11.98;4.07;;;1.40;99.90;;;;;;5066753;28;20021;-78
2024/01/16 09:44:29;;;;;;;12.13;4.45;;;1.40;99.90;;;;;;5065174;28;20048;-79
2024/01/16 09:46:58;;;;;;;15.30;4.47;;;1.40;99.90;;;;;;5061734;28;20056;-79
2024/01/16 09:49:24;;;;;;;7.82;4.15;;;1.40;99.90;;;;;;5061879;28;20032;-78
2024/01/16 09:51:50;;;;;;;14.75;5.43;;;1.40;99.90;;;;;;5061828;28;20032;-78
2024/01/16 09:54:15;;;;;;;12.32;4.35;;;1.40;99.90;;;;;;5052629;28;20431;-78
2024/01/16 09:56:45;;;;;;;10.13;4.43;;;1.40;99.90;;;;;;5057491;28;20028;-78
2024/01/16 09:59:15;;;;;;;14.73;4.82;;;1.40;99.90;;;;;;5060437;28;20025;-79
2024/01/16 10:01:41;;;;;;;14.13;4.75;;;1.30;99.90;;;;;;5055843;28;20195;-79
2024/01/16 10:04:07;;;;;;;12.43;4.47;;;1.30;99.90;;;;;;5051695;28;20387;-79
2024/01/16 10:06:34;;;;;;;13.00;4.40;;;1.30;99.90;;;;;;5059073;28;20021;-79
2024/01/16 10:09:00;;;;;;;9.55;4.18;;;1.30;99.90;;;;;;5059174;28;20028;-78
2024/01/16 10:11:25;;;;;;;11.63;4.10;;;1.40;99.90;;;;;;5051576;28;20028;-79
2024/01/16 10:13:51;;;;;;;11.45;4.10;;;1.30;99.90;;;;;;5064683;28;20024;-78
2024/01/16 10:16:17;;;;;;;11.60;4.72;;;1.40;99.90;;;;;;5060593;28;20029;-79
2024/01/16 10:18:43;;;;;;;10.70;4.15;;;1.40;99.90;;;;;;5062261;28;20041;-79
2024/01/16 10:21:22;;;;;;;8.25;3.50;;;1.40;99.90;;;;;;5052632;28;20052;-78
2024/01/16 10:23:49;;;;;;;10.23;3.53;;;1.60;99.90;;;;;;5057246;28;20045;-78
2024/01/16 10:26:15;;;;;;;12.82;3.95;;;1.70;99.90;;;;;;5048734;28;20032;-78
2024/01/16 10:28:42;;;;;;;9.27;3.58;;;1.70;99.90;;;;;;5052759;28;20108;-78
2024/01/16 10:31:10;;;;;;;10.07;3.20;;;1.80;99.90;;;;;;5062477;28;20039;-78
2024/01/16 10:33:39;;;;;;;10.00;3.53;;;1.80;99.90;;;;;;5050726;28;20104;-78
2024/01/16 10:36:12;;;;;;;9.40;3.53;;;1.80;99.90;;;;;;5045043;28;20493;-78
2024/01/16 10:38:45;;;;;;;11.30;3.80;;;1.80;99.90;;;;;;5059290;28;20024;-78
2024/01/16 10:41:17;;;;;;;9.13;3.50;;;1.80;99.90;;;;;;5058502;28;20032;-78
2024/01/16 10:43:44;;;;;;;10.73;4.07;;;1.70;99.90;;;;;;5060015;28;20028;-78
2024/01/16 10:46:17;;;;;;;13.15;4.15;;;1.70;99.90;;;;;;5051965;28;20107;-78
2024/01/16 10:48:45;;;;;;;8.68;3.40;;;1.70;99.90;;;;;;5052180;28;20032;-78
2024/01/16 10:51:17;;;;;;;9.15;3.83;;;1.70;99.90;;;;;;5052283;28;20016;-78
2024/01/16 10:53:46;;;;;;;8.38;3.13;;;1.80;99.90;;;;;;5058157;28;20056;-77
2024/01/16 10:56:13;;;;;;;8.93;3.25;;;1.90;99.90;;;;;;5059102;28;20040;-77
2024/01/16 10:58:43;;;;;;;15.30;3.90;;;2.00;99.90;;;;;;5049461;28;20035;-77
2024/01/16 11:01:15;;;;;;;10.13;3.63;;;2.10;99.90;;;;;;5053989;28;20033;-77
2024/01/16 11:03:48;;;;;;;8.63;3.10;;;2.20;99.90;;;;;;5048629;28;20028;-77
2024/01/16 11:06:18;;;;;;;8.95;2.90;;;2.30;99.90;;;;;;5062793;28;20063;-77
2024/01/16 11:08:48;;;;;;;9.75;2.83;;;2.40;99.90;;;;;;5063958;28;20033;-77
2024/01/16 11:11:14;;;;;;;8.85;3.63;;;2.50;99.90;;;;;;5062233;28;20031;-77
2024/01/16 11:13:44;;;;;;;12.93;3.38;;;2.50;99.90;;;;;;5047878;28;20029;-77
2024/01/16 11:16:10;;;;;;;9.93;2.90;;;2.50;99.90;;;;;;5058104;28;20098;-78
2024/01/16 11:18:36;;;;;;;9.65;2.75;;;2.60;99.90;;;;;;5069243;28;20070;-79
2024/01/16 11:21:11;;;;;;;7.45;3.10;;;2.60;99.90;;;;;;5057756;28;20028;-78
2024/01/16 11:23:38;;;;;;;8.07;2.58;;;2.60;99.90;;;;;;5062013;28;20040;-77
2024/01/16 11:26:26;;;;;;;6.95;2.80;;;2.60;99.90;;;;;;5056370;28;20494;-76
2024/01/16 11:28:53;;;;;;;8.02;3.30;;;2.70;99.90;;;;;;5058559;28;20025;-76
2024/01/16 11:31:37;;;;;;;7.35;2.83;;;2.80;99.90;;;;;;5055194;28;20025;-77
2024/01/16 11:34:02;;;;;;;7.50;3.15;;;2.90;99.90;;;;;;5066380;28;20113;-77
2024/01/16 11:37:07;;;;;;;6.43;2.70;;;3.00;99.90;;;;;;5056970;28;20059;-77
2024/01/16 11:39:33;;;;;;;8.82;2.63;;;3.20;99.90;;;;;;5019233;28;20041;-76
2024/01/16 11:42:02;;;;;;;7.72;3.42;;;3.30;99.90;;;;;;5055333;28;20047;-76
2024/01/16 11:44:50;;;;;;;8.25;2.95;;;3.40;99.90;;;;;;5055667;28;20090;-75
2024/01/16 11:47:22;;;;;;;9.80;3.05;;;3.50;99.90;;;;;;5055151;28;20107;-76
2024/01/16 11:49:51;;;;;;;7.68;2.72;;;3.60;99.90;;;;;;5065848;28;20029;-77
2024/01/16 11:52:46;;;;;;;8.80;3.20;;;3.70;99.90;;;;;;5052509;28;20025;-76
2024/01/16 11:55:31;;;;;;;13.30;3.03;;;3.70;99.90;;;;;;5049704;28;20047;-76
2024/01/16 11:58:21;;;;;;;7.47;3.00;;;3.80;99.90;;;;;;5062708;28;20155;-76
2024/01/16 12:00:52;;;;;;;5.97;2.45;;;3.80;99.90;;;;;;5061654;28;20032;-76
2024/01/16 12:03:22;;;;;;;9.77;3.13;;;3.80;99.90;;;;;;5054818;28;20052;-77
2024/01/16 12:05:57;;;;;;;11.75;3.38;;;3.80;99.90;;;;;;5063892;28;20607;-76
2024/01/16 12:08:23;;;;;;;10.32;3.40;;;3.80;99.90;;;;;;5063264;28;20032;-77
2024/01/16 12:10:49;;;;;;;9.23;3.28;;;3.80;99.90;;;;;;5066984;28;20028;-76
2024/01/16 12:13:15;;;;;;;8.35;2.72;;;3.90;99.90;;;;;;5061851;28;20017;-77
2024/01/16 12:15:41;;;;;;;6.70;2.97;;;3.90;99.90;;;;;;5060198;28;20032;-77
2024/01/16 12:18:07;;;;;;;10.15;3.60;;;4.00;99.90;;;;;;5066154;28;20052;-76
2024/01/16 12:20:35;;;;;;;10.48;3.47;;;4.10;99.90;;;;;;5064398;28;20064;-76
2024/01/16 12:23:06;;;;;;;9.02;3.33;;;4.00;99.90;;;;;;5061489;28;20055;-76
2024/01/16 12:25:37;;;;;;;11.15;3.28;;;4.10;99.90;;;;;;5057912;28;20029;-76
2024/01/16 12:28:10;;;;;;;;;;;4.10;99.90;;;;;;5068639;28;20043;-77
2024/01/16 12:30:37;;;;;;;10.50;3.55;;;4.10;99.90;;;;;;5065479;28;19951;-76
2024/01/16 12:33:06;;;;;;;12.38;3.78;;;4.00;99.90;;;;;;5067988;28;20432;-77
2024/01/16 12:36:00;;;;;;;11.05;3.45;;;4.10;99.90;;;;;;5069813;28;20028;-77
2024/01/16 12:38:26;;;;;;;8.23;3.45;;;4.20;99.90;;;;;;5068279;28;20020;-79
2024/01/16 12:40:52;;;;;;;9.45;3.03;;;4.30;99.90;;;;;;5068715;28;20033;-79
2024/01/16 12:43:18;;;;;;;9.55;3.30;;;4.20;99.90;;;;;;5052742;28;20063;-77
2024/01/16 12:45:45;;;;;;;9.15;3.50;;;4.20;99.90;;;;;;5057879;28;20493;-78
2024/01/16 12:48:12;;;;;;;11.10;3.78;;;4.20;99.90;;;;;;5066346;28;20025;-77
2024/01/16 12:50:38;;;;;;;9.10;3.60;;;4.30;99.90;;;;;;5061778;28;20025;-78